Time;durP1;ratioP1;P1;durP2;ratioP2;P2;SDS_P1;SDS_P2;PMS_P1;PMS_P2;Temp;Humidity;BMP_temperature;BMP_pressure;BME280_temperature;BME280_humidity;BME280_pressure;Samples;Min_cycle;Max_cycle;Signal;HPM_P1;HPM_P2
2021/05/05 00:00:28;;;;;;;9.23;5.90;;;10.30;69.30;;;;;;5034298;29;20057;-68
2021/05/05 00:03:00;;;;;;;7.32;5.80;;;10.20;67.20;;;;;;5049037;29;20463;-70
2021/05/05 00:05:33;;;;;;;6.00;5.40;;;10.20;66.90;;;;;;5047288;29;20084;-69
2021/05/05 00:08:04;;;;;;;6.55;5.60;;;10.20;66.40;;;;;;5032224;29;20049;-68
2021/05/05 00:10:36;;;;;;;6.68;5.93;;;10.30;66.20;;;;;;5051701;29;20052;-69
2021/05/05 00:13:07;;;;;;;6.63;5.88;;;10.30;66.20;;;;;;5049325;29;20451;-68
2021/05/05 00:15:39;;;;;;;6.75;5.38;;;10.30;66.70;;;;;;5036863;29;20049;-68
2021/05/05 00:18:11;;;;;;;6.20;5.60;;;10.30;67.10;;;;;;5048097;29;20097;-69
2021/05/05 00:20:42;;;;;;;8.73;5.50;;;10.30;66.40;;;;;;5050511;29;20064;-68
2021/05/05 00:23:14;;;;;;;6.80;5.47;;;10.40;66.50;;;;;;5050166;29;20067;-67
2021/05/05 00:25:45;;;;;;;6.28;5.65;;;10.40;66.70;;;;;;5049350;29;20162;-68
2021/05/05 00:28:16;;;;;;;6.45;5.78;;;10.30;67.20;;;;;;5049425;29;20045;-69
2021/05/05 00:30:48;;;;;;;7.32;5.72;;;10.30;66.60;;;;;;5047714;29;20726;-68
2021/05/05 00:33:20;;;;;;;6.50;5.90;;;10.30;66.80;;;;;;5049040;29;20045;-67
2021/05/05 00:35:51;;;;;;;6.80;6.10;;;10.20;68.50;;;;;;5048884;29;20063;-68
2021/05/05 00:38:22;;;;;;;8.38;6.60;;;10.20;68.20;;;;;;5048727;29;20064;-68
2021/05/05 00:40:54;;;;;;;6.72;6.03;;;10.20;68.10;;;;;;5048881;29;20048;-68
2021/05/05 00:43:25;;;;;;;6.85;6.15;;;10.10;68.50;;;;;;5050371;29;20151;-68
2021/05/05 00:45:57;;;;;;;7.65;6.85;;;10.10;68.30;;;;;;5045811;29;20047;-68
2021/05/05 00:48:28;;;;;;;7.32;6.57;;;10.10;67.40;;;;;;5050457;29;20056;-67
2021/05/05 00:51:02;;;;;;;7.05;6.30;;;10.10;69.00;;;;;;5045875;29;20037;-68
2021/05/05 00:53:34;;;;;;;6.78;6.07;;;10.10;68.60;;;;;;5049263;29;20550;-68
2021/05/05 00:56:06;;;;;;;6.40;5.80;;;10.10;68.20;;;;;;5040337;29;20104;-68
2021/05/05 00:58:38;;;;;;;7.10;6.40;;;10.10;68.30;;;;;;5040972;29;20060;-68
2021/05/05 01:01:10;;;;;;;7.05;6.20;;;10.10;68.00;;;;;;5048439;29;20049;-68
2021/05/05 01:03:42;;;;;;;7.10;6.40;;;10.10;68.60;;;;;;5051103;29;20537;-68
2021/05/05 01:06:15;;;;;;;6.53;5.93;;;10.00;69.10;;;;;;5042993;29;20052;-68
2021/05/05 01:08:47;;;;;;;6.53;5.93;;;9.90;69.10;;;;;;5040888;29;20056;-69
2021/05/05 01:11:19;;;;;;;7.05;6.28;;;9.90;68.00;;;;;;5053260;29;20060;-68
2021/05/05 01:13:51;;;;;;;6.97;6.28;;;9.90;68.50;;;;;;5063763;29;20060;-68
2021/05/05 01:16:24;;;;;;;6.65;5.90;;;10.00;68.70;;;;;;5046436;29;20064;-68
2021/05/05 01:18:55;;;;;;;6.68;5.80;;;10.00;69.00;;;;;;5055968;29;20462;-68
2021/05/05 01:21:30;;;;;;;6.63;6.00;;;10.00;69.50;;;;;;5034082;29;20044;-68
2021/05/05 01:24:04;;;;;;;7.93;6.90;;;10.00;69.30;;;;;;5049219;29;20786;-68
2021/05/05 01:26:37;;;;;;;8.38;6.45;;;10.00;69.60;;;;;;5033161;29;20045;-68
2021/05/05 01:29:10;;;;;;;7.80;6.53;;;10.00;70.10;;;;;;5049633;29;20048;-68
2021/05/05 01:31:41;;;;;;;6.93;6.00;;;9.90;70.10;;;;;;5063094;29;20419;-69
2021/05/05 01:34:13;;;;;;;7.70;6.40;;;9.90;69.70;;;;;;5045478;29;20072;-68
2021/05/05 01:36:45;;;;;;;7.30;6.15;;;9.80;70.30;;;;;;5045287;29;20049;-68
2021/05/05 01:39:18;;;;;;;7.15;6.50;;;9.90;70.50;;;;;;5043614;29;20076;-69
2021/05/05 01:41:50;;;;;;;6.95;5.90;;;9.80;70.30;;;;;;5045924;29;20527;-67
2021/05/05 01:44:36;;;;;;;6.50;5.90;;;9.90;70.40;;;;;;5063263;29;20053;-67
2021/05/05 01:47:13;;;;;;;6.93;6.23;;;9.90;70.40;;;;;;5058387;29;20047;-68
2021/05/05 01:49:47;;;;;;;6.85;5.95;;;9.90;70.40;;;;;;5045401;29;20045;-69
2021/05/05 01:52:22;;;;;;;7.03;6.32;;;9.90;71.10;;;;;;5061800;29;20507;-68
2021/05/05 01:54:54;;;;;;;6.80;6.20;;;9.90;71.10;;;;;;5058974;29;20036;-68
2021/05/05 01:57:28;;;;;;;6.80;6.10;;;9.90;70.90;;;;;;5048507;29;20084;-68
2021/05/05 02:00:31;;;;;;;6.93;6.22;;;9.90;71.10;;;;;;5048621;29;20136;-71
2021/05/05 02:03:22;;;;;;;9.35;6.68;;;9.90;71.20;;;;;;5045676;29;20415;-68
2021/05/05 02:06:00;;;;;;;7.57;6.88;;;9.80;71.80;;;;;;5047471;29;20043;-68
2021/05/05 02:08:41;;;;;;;6.97;6.30;;;9.80;71.80;;;;;;5034221;29;20052;-68
2021/05/05 02:11:13;;;;;;;7.55;6.03;;;9.70;72.70;;;;;;5033089;29;20048;-68
2021/05/05 02:13:45;;;;;;;6.95;6.25;;;9.60;72.30;;;;;;5023786;29;20231;-68
2021/05/05 02:16:18;;;;;;;6.82;6.22;;;9.50;73.10;;;;;;5048319;29;20044;-67
2021/05/05 02:18:58;;;;;;;6.68;6.05;;;9.50;72.40;;;;;;5047545;29;20108;-68
2021/05/05 02:21:30;;;;;;;7.57;6.47;;;9.50;71.90;;;;;;5033338;29;20076;-68
2021/05/05 02:24:03;;;;;;;7.25;6.55;;;9.60;72.30;;;;;;5044339;29;20102;-68
2021/05/05 02:26:36;;;;;;;7.47;6.78;;;9.60;73.10;;;;;;5044799;29;20052;-67
2021/05/05 02:29:08;;;;;;;7.35;6.60;;;9.40;73.00;;;;;;5048227;29;20052;-68
2021/05/05 02:31:55;;;;;;;8.45;7.03;;;9.30;73.50;;;;;;5052005;29;20120;-68
2021/05/05 02:34:27;;;;;;;8.02;7.22;;;9.20;73.50;;;;;;5052850;29;20119;-67
2021/05/05 02:36:58;;;;;;;8.55;6.85;;;9.30;73.90;;;;;;5049732;29;20049;-67
2021/05/05 02:39:30;;;;;;;8.32;6.70;;;9.30;72.90;;;;;;5049117;29;20057;-69
2021/05/05 02:42:03;;;;;;;8.07;6.65;;;9.40;72.00;;;;;;5035908;29;20076;-67
2021/05/05 02:44:35;;;;;;;7.00;6.30;;;9.30;72.00;;;;;;5050272;29;20053;-67
2021/05/05 02:47:07;;;;;;;6.80;6.10;;;9.30;71.60;;;;;;5042835;29;20100;-68
2021/05/05 02:49:39;;;;;;;7.00;6.30;;;9.30;72.90;;;;;;5053567;29;20140;-67
2021/05/05 02:52:12;;;;;;;7.07;6.47;;;9.20;73.20;;;;;;5049093;29;20526;-68
2021/05/05 02:54:45;;;;;;;7.07;6.38;;;9.20;73.30;;;;;;5052300;29;20079;-68
2021/05/05 02:57:17;;;;;;;7.95;6.68;;;9.10;72.90;;;;;;5050433;29;20463;-69
2021/05/05 02:59:50;;;;;;;7.03;6.32;;;9.10;73.90;;;;;;5050303;29;20053;-68
2021/05/05 03:02:21;;;;;;;7.38;6.30;;;9.20;73.30;;;;;;5052366;29;20531;-67
2021/05/05 03:04:53;;;;;;;7.38;6.63;;;9.30;72.30;;;;;;5048473;29;20510;-68
2021/05/05 03:07:25;;;;;;;7.18;6.47;;;9.30;72.40;;;;;;5048631;29;20534;-67
2021/05/05 03:09:57;;;;;;;7.85;7.05;;;9.40;72.50;;;;;;5050427;29;20069;-67
2021/05/05 03:12:28;;;;;;;7.60;6.70;;;9.40;72.00;;;;;;5033765;29;20045;-68
2021/05/05 03:15:00;;;;;;;7.72;6.93;;;9.40;72.00;;;;;;5050356;29;20135;-67
2021/05/05 03:17:31;;;;;;;7.88;7.18;;;9.40;72.10;;;;;;5049052;29;20458;-71
2021/05/05 03:20:09;;;;;;;8.32;7.20;;;9.30;72.50;;;;;;5053174;29;20053;-67
2021/05/05 03:22:40;;;;;;;8.10;7.30;;;9.40;72.40;;;;;;5051514;29;20060;-68
2021/05/05 03:25:12;;;;;;;8.13;7.10;;;9.40;72.50;;;;;;5050069;29;20049;-68
2021/05/05 03:27:43;;;;;;;7.88;6.25;;;9.40;72.40;;;;;;5048137;29;20049;-68
2021/05/05 03:30:16;;;;;;;7.25;6.55;;;9.40;73.10;;;;;;5048778;29;20045;-68
2021/05/05 03:32:47;;;;;;;6.65;5.95;;;9.30;73.30;;;;;;5020748;29;20037;-68
2021/05/05 03:35:19;;;;;;;7.38;6.60;;;9.30;73.60;;;;;;5048272;29;20063;-68
2021/05/05 03:37:50;;;;;;;7.60;6.63;;;9.20;73.00;;;;;;5049893;29;20037;-68
2021/05/05 03:40:22;;;;;;;7.07;6.38;;;9.20;73.40;;;;;;5050293;29;20060;-70
2021/05/05 03:42:53;;;;;;;7.38;6.68;;;9.10;73.70;;;;;;5051584;29;20814;-68
2021/05/05 03:45:25;;;;;;;7.88;6.53;;;9.10;74.20;;;;;;5050285;29;20044;-68
2021/05/05 03:47:56;;;;;;;7.47;6.63;;;9.00;74.10;;;;;;5050325;29;20049;-68
2021/05/05 03:50:28;;;;;;;7.40;6.70;;;9.00;73.40;;;;;;5048219;29;20052;-68
2021/05/05 03:53:03;;;;;;;7.10;6.40;;;9.10;74.50;;;;;;5052109;29;20069;-68
2021/05/05 03:55:35;;;;;;;7.75;7.05;;;9.00;76.10;;;;;;5049594;29;20039;-69
2021/05/05 03:58:06;;;;;;;8.05;6.70;;;9.00;74.70;;;;;;5045684;29;20037;-68
2021/05/05 04:00:37;;;;;;;8.07;7.28;;;9.10;74.40;;;;;;5053852;29;20538;-68
2021/05/05 04:03:09;;;;;;;7.80;7.10;;;9.20;73.70;;;;;;5049423;29;20785;-68
2021/05/05 04:05:40;;;;;;;8.50;7.78;;;9.20;73.70;;;;;;5048454;29;20080;-68
2021/05/05 04:08:12;;;;;;;8.65;7.82;;;9.20;74.00;;;;;;5043126;29;20045;-69
2021/05/05 04:10:43;;;;;;;9.35;8.45;;;9.30;73.70;;;;;;5049175;29;20053;-68
2021/05/05 04:13:15;;;;;;;8.48;7.68;;;9.30;73.70;;;;;;5050940;29;20097;-69
2021/05/05 04:16:05;;;;;;;9.50;8.70;;;9.30;73.20;;;;;;5050024;29;20037;-67
2021/05/05 04:18:54;;;;;;;7.90;7.20;;;9.30;73.80;;;;;;5049650;29;20153;-68
2021/05/05 04:21:44;;;;;;;8.77;7.32;;;9.40;73.90;;;;;;5048121;29;20045;-68
2021/05/05 04:24:33;;;;;;;8.23;7.53;;;9.30;74.20;;;;;;5024155;29;20610;-68
2021/05/05 04:27:05;;;;;;;8.77;7.97;;;9.30;74.10;;;;;;5049097;29;20057;-69
2021/05/05 04:29:36;;;;;;;8.82;8.02;;;9.30;74.70;;;;;;5049867;29;20047;-68
2021/05/05 04:32:09;;;;;;;8.68;7.88;;;9.40;74.20;;;;;;5049232;29;20049;-69
2021/05/05 04:34:42;;;;;;;7.95;7.20;;;9.40;73.50;;;;;;5047756;29;20770;-69
2021/05/05 04:37:13;;;;;;;8.50;7.70;;;9.40;73.70;;;;;;5048260;29;20041;-69
2021/05/05 04:39:45;;;;;;;9.65;7.85;;;9.40;74.80;;;;;;5046972;29;20091;-70
2021/05/05 04:42:17;;;;;;;9.05;8.05;;;9.30;77.20;;;;;;5050802;29;20477;-68
2021/05/05 04:44:49;;;;;;;12.13;7.90;;;9.10;77.10;;;;;;5035457;29;20054;-68
2021/05/05 04:47:21;;;;;;;8.63;7.60;;;9.10;76.30;;;;;;5035278;29;20052;-68
2021/05/05 04:49:52;;;;;;;8.63;7.82;;;9.00;75.80;;;;;;5047154;29;20431;-68
2021/05/05 04:52:24;;;;;;;9.23;7.90;;;9.00;75.50;;;;;;5033468;29;20045;-68
2021/05/05 04:54:55;;;;;;;8.45;7.28;;;9.10;75.10;;;;;;5050075;29;20056;-68
2021/05/05 04:57:27;;;;;;;8.55;7.55;;;9.20;75.10;;;;;;5035711;29;20049;-69
2021/05/05 04:59:58;;;;;;;8.60;7.70;;;9.30;75.70;;;;;;5046463;29;20895;-69
2021/05/05 05:02:30;;;;;;;8.32;7.53;;;9.30;75.60;;;;;;5032312;29;20057;-68
2021/05/05 05:05:04;;;;;;;8.93;7.20;;;9.20;75.00;;;;;;5046294;29;20216;-71
2021/05/05 05:07:35;;;;;;;8.55;7.60;;;9.10;75.80;;;;;;5053323;29;20048;-68
2021/05/05 05:10:08;;;;;;;7.65;6.68;;;9.20;75.70;;;;;;5052535;29;20056;-69
2021/05/05 05:12:39;;;;;;;9.13;7.65;;;9.30;77.50;;;;;;5061815;29;20045;-69
2021/05/05 05:15:11;;;;;;;8.40;7.53;;;9.40;76.00;;;;;;5045081;29;20045;-70
2021/05/05 05:17:42;;;;;;;7.88;7.07;;;9.40;76.40;;;;;;5045870;29;20105;-67
2021/05/05 05:20:14;;;;;;;8.27;7.47;;;9.50;77.20;;;;;;5043814;29;20045;-67
2021/05/05 05:22:46;;;;;;;8.60;7.80;;;9.50;77.40;;;;;;5048358;29;20555;-68
2021/05/05 05:25:17;;;;;;;8.20;7.43;;;9.60;78.00;;;;;;5047940;29;20092;-67
2021/05/05 05:27:48;;;;;;;7.80;7.10;;;9.60;77.70;;;;;;5047717;29;20124;-67
2021/05/05 05:30:21;;;;;;;8.70;7.80;;;9.70;77.30;;;;;;5049741;29;20052;-67
2021/05/05 05:32:52;;;;;;;8.63;7.72;;;9.80;77.20;;;;;;5045975;29;20452;-67
2021/05/05 05:35:25;;;;;;;8.20;7.40;;;9.80;77.40;;;;;;5044035;29;20052;-66
2021/05/05 05:37:57;;;;;;;9.00;7.93;;;9.80;76.40;;;;;;5045452;29;20056;-66
2021/05/05 05:40:28;;;;;;;7.68;6.85;;;9.80;77.30;;;;;;5044271;29;20049;-66
2021/05/05 05:43:00;;;;;;;7.53;6.82;;;9.70;76.40;;;;;;5046442;29;20044;-66
2021/05/05 05:45:32;;;;;;;6.57;5.97;;;9.60;77.50;;;;;;5051628;29;20105;-67
2021/05/05 05:48:06;;;;;;;10.98;6.35;;;9.60;77.10;;;;;;5045336;29;20048;-66
2021/05/05 05:50:38;;;;;;;6.38;5.78;;;9.50;77.00;;;;;;5043986;29;20113;-65
2021/05/05 05:53:09;;;;;;;6.85;5.60;;;9.30;73.30;;;;;;5047315;29;20059;-64
2021/05/05 05:55:43;;;;;;;6.03;5.43;;;9.10;73.90;;;;;;5056687;29;20081;-65
2021/05/05 05:58:15;;;;;;;6.32;5.72;;;9.10;75.40;;;;;;5044017;29;20055;-65
2021/05/05 06:00:46;;;;;;;6.72;5.30;;;9.10;76.30;;;;;;5045254;29;20104;-66
2021/05/05 06:03:18;;;;;;;5.85;4.97;;;9.10;75.80;;;;;;5046088;29;20044;-64
2021/05/05 06:05:49;;;;;;;5.50;5.00;;;9.10;74.90;;;;;;5047602;29;20475;-65
2021/05/05 06:08:21;;;;;;;5.32;4.82;;;9.00;75.00;;;;;;5049052;29;20616;-65
2021/05/05 06:10:53;;;;;;;6.07;5.47;;;8.90;75.20;;;;;;5043542;29;20045;-68
2021/05/05 06:13:25;;;;;;;5.55;5.05;;;8.90;75.90;;;;;;5044044;29;20068;-65
2021/05/05 06:15:57;;;;;;;6.20;5.57;;;9.00;75.00;;;;;;5048766;29;20045;-65
2021/05/05 06:18:29;;;;;;;5.38;4.88;;;8.80;74.00;;;;;;5049382;29;20067;-66
2021/05/05 06:21:00;;;;;;;5.30;4.80;;;8.70;76.00;;;;;;5046124;29;20184;-65
2021/05/05 06:23:32;;;;;;;6.32;5.28;;;8.70;75.30;;;;;;5046571;29;20045;-66
2021/05/05 06:26:04;;;;;;;5.45;4.90;;;8.70;76.00;;;;;;5031210;29;20049;-65
2021/05/05 06:28:35;;;;;;;5.47;4.97;;;8.70;74.70;;;;;;5046255;29;20468;-67
2021/05/05 06:31:07;;;;;;;5.60;4.97;;;8.70;75.90;;;;;;5046011;29;20040;-66
2021/05/05 06:33:39;;;;;;;5.38;4.88;;;8.80;76.20;;;;;;5048110;29;20049;-66
2021/05/05 06:36:10;;;;;;;6.70;5.90;;;8.80;75.00;;;;;;5044417;29;20397;-65
2021/05/05 06:38:41;;;;;;;5.40;4.90;;;8.80;74.50;;;;;;5048229;29;20056;-66
2021/05/05 06:41:13;;;;;;;5.20;4.70;;;8.80;74.50;;;;;;5029170;29;20041;-66
2021/05/05 06:43:44;;;;;;;5.82;5.30;;;8.90;74.00;;;;;;5044763;29;20052;-66
2021/05/05 06:46:16;;;;;;;5.68;4.78;;;8.90;74.20;;;;;;5044824;29;20748;-67
2021/05/05 06:48:47;;;;;;;4.70;4.30;;;8.80;75.80;;;;;;5047870;29;20427;-65
2021/05/05 06:51:19;;;;;;;4.85;4.45;;;8.80;74.20;;;;;;5047806;29;20041;-67
2021/05/05 06:53:50;;;;;;;4.32;3.92;;;8.80;74.50;;;;;;5046989;29;20037;-66
2021/05/05 06:56:22;;;;;;;4.70;4.30;;;8.90;75.20;;;;;;5047753;29;20097;-66
2021/05/05 06:58:53;;;;;;;4.75;4.35;;;8.80;76.40;;;;;;5048804;29;20589;-65
2021/05/05 07:01:25;;;;;;;5.20;4.70;;;8.80;77.60;;;;;;5049667;29;20060;-67
2021/05/05 07:03:57;;;;;;;4.90;4.45;;;8.70;78.50;;;;;;5049769;29;20535;-65
2021/05/05 07:06:28;;;;;;;5.55;5.05;;;8.70;78.30;;;;;;5044856;29;20523;-66
2021/05/05 07:09:00;;;;;;;6.70;5.35;;;8.60;79.20;;;;;;5032135;29;20048;-66
2021/05/05 07:11:35;;;;;;;5.90;5.30;;;8.60;78.60;;;;;;5048983;29;20101;-67
2021/05/05 07:14:07;;;;;;;5.47;4.97;;;8.50;76.80;;;;;;5044828;29;20077;-66
2021/05/05 07:16:38;;;;;;;4.93;4.45;;;8.60;77.00;;;;;;5051964;29;20459;-65
2021/05/05 07:19:10;;;;;;;5.38;4.47;;;8.60;76.00;;;;;;5049392;29;20049;-65
2021/05/05 07:21:41;;;;;;;4.43;4.03;;;8.60;76.50;;;;;;5050515;29;20048;-65
2021/05/05 07:24:13;;;;;;;5.15;4.43;;;8.60;76.20;;;;;;5052171;29;20934;-65
2021/05/05 07:26:44;;;;;;;5.22;4.72;;;8.60;77.50;;;;;;5052227;29;20109;-65
2021/05/05 07:29:16;;;;;;;5.22;4.68;;;8.50;77.90;;;;;;5050653;29;20146;-67
2021/05/05 07:31:47;;;;;;;5.05;4.55;;;8.40;78.30;;;;;;5051114;29;20049;-65
2021/05/05 07:34:19;;;;;;;5.45;4.82;;;8.40;78.80;;;;;;5038977;29;20515;-65
2021/05/05 07:36:52;;;;;;;5.65;4.93;;;8.40;79.00;;;;;;5049407;29;20407;-66
2021/05/05 07:45:08;;;;;;;4.40;4.00;;;8.40;76.30;;;;;;5048304;29;20097;-67
2021/05/05 07:47:45;;;;;;;4.68;4.20;;;8.40;74.80;;;;;;5052491;29;20053;-66
2021/05/05 07:50:17;;;;;;;4.60;4.20;;;8.30;75.40;;;;;;5047589;29;20108;-66
2021/05/05 07:52:49;;;;;;;4.60;4.20;;;8.20;73.90;;;;;;5051096;29;20033;-65
2021/05/05 07:55:20;;;;;;;4.60;4.20;;;8.00;74.60;;;;;;5034645;29;20033;-65
2021/05/05 07:57:51;;;;;;;4.40;4.00;;;8.10;75.40;;;;;;5035069;29;20244;-66
2021/05/05 08:00:23;;;;;;;4.60;4.20;;;8.10;75.60;;;;;;5052141;29;20033;-65
2021/05/05 08:02:54;;;;;;;4.88;4.47;;;8.10;73.10;;;;;;5050529;29;20053;-66
2021/05/05 08:05:26;;;;;;;5.18;4.68;;;8.00;74.70;;;;;;5048693;29;20053;-65
2021/05/05 08:07:57;;;;;;;5.50;4.40;;;7.90;75.10;;;;;;5050054;29;20049;-65
2021/05/05 08:10:28;;;;;;;4.55;4.15;;;7.90;75.30;;;;;;5048346;29;20056;-66
2021/05/05 08:13:00;;;;;;;5.07;4.63;;;7.80;75.80;;;;;;5040432;29;20105;-65
2021/05/05 08:15:34;;;;;;;5.10;4.60;;;7.80;76.40;;;;;;5051833;29;20084;-65
2021/05/05 08:18:07;;;;;;;5.22;4.72;;;7.70;77.10;;;;;;5051084;29;20805;-65
2021/05/05 08:20:39;;;;;;;4.63;4.22;;;7.80;78.60;;;;;;5044944;29;20105;-65
2021/05/05 08:23:13;;;;;;;4.80;4.30;;;7.90;76.60;;;;;;5053076;29;20053;-65
2021/05/05 08:25:48;;;;;;;4.85;4.45;;;8.00;78.10;;;;;;5048697;29;20618;-66
2021/05/05 08:28:20;;;;;;;5.45;4.95;;;8.00;77.90;;;;;;5049138;29;20049;-65
2021/05/05 08:30:52;;;;;;;5.18;4.68;;;8.10;78.50;;;;;;5030212;29;20044;-66
2021/05/05 08:33:24;;;;;;;5.07;4.57;;;8.10;76.50;;;;;;5048523;29;20049;-65
2021/05/05 08:35:55;;;;;;;5.30;4.80;;;8.20;76.10;;;;;;5051081;29;20049;-65
2021/05/05 08:38:28;;;;;;;4.70;4.30;;;8.30;74.00;;;;;;5035276;29;20045;-65
2021/05/05 08:40:59;;;;;;;5.18;4.68;;;8.30;74.20;;;;;;5047787;29;20045;-65
2021/05/05 08:43:33;;;;;;;5.50;4.70;;;8.40;77.00;;;;;;5050077;29;20048;-68
2021/05/05 08:46:06;;;;;;;5.05;4.55;;;8.30;76.00;;;;;;5049928;29;20128;-67
2021/05/05 08:48:38;;;;;;;4.63;4.22;;;8.30;75.80;;;;;;5049159;29;20101;-66
2021/05/05 08:51:11;;;;;;;5.22;4.72;;;8.10;76.10;;;;;;5049692;29;20101;-65
2021/05/05 08:53:42;;;;;;;4.88;4.38;;;8.00;77.60;;;;;;5049816;29;20041;-66
2021/05/05 08:56:14;;;;;;;5.50;4.65;;;7.90;76.80;;;;;;5049702;29;20037;-65
2021/05/05 08:58:46;;;;;;;4.50;4.10;;;7.90;77.90;;;;;;5047948;29;20056;-69
2021/05/05 09:01:17;;;;;;;4.68;4.28;;;8.10;77.90;;;;;;5046735;29;20507;-65
2021/05/05 09:03:50;;;;;;;4.85;4.35;;;8.20;76.50;;;;;;5008135;29;20049;-65
2021/05/05 09:06:58;;;;;;;6.10;4.40;;;8.20;74.40;;;;;;5047453;29;20467;-66
2021/05/05 09:09:43;;;;;;;5.63;5.13;;;8.40;77.20;;;;;;4986833;29;20486;-66
2021/05/05 09:12:24;;;;;;;5.00;4.50;;;8.60;76.20;;;;;;5045211;29;20052;-66
2021/05/05 09:14:59;;;;;;;7.22;5.43;;;8.80;77.10;;;;;;5036652;29;20041;-66
2021/05/05 09:21:46;;;;;;;;;;;9.00;70.10;;;;;;5050290;29;20044;-66
2021/05/05 09:24:30;;;;;;;4.90;4.40;;;8.80;66.90;;;;;;5049106;29;19924;-67
2021/05/05 09:27:07;;;;;;;4.72;4.32;;;8.80;71.50;;;;;;5049402;29;20065;-67
2021/05/05 09:29:47;;;;;;;5.50;5.00;;;8.90;70.00;;;;;;5048813;29;20048;-66
2021/05/05 09:32:20;;;;;;;5.70;5.20;;;9.10;71.80;;;;;;5046973;29;20052;-65
2021/05/05 09:35:01;;;;;;;5.32;4.80;;;9.00;69.20;;;;;;5049499;29;20052;-68
2021/05/05 09:37:33;;;;;;;5.10;4.60;;;9.20;69.60;;;;;;5049239;29;20732;-66
2021/05/05 09:40:09;;;;;;;5.93;4.93;;;9.10;69.90;;;;;;5051563;29;20131;-66
2021/05/05 09:42:40;;;;;;;4.47;4.07;;;8.90;59.20;;;;;;5047542;29;20064;-66
2021/05/05 09:45:12;;;;;;;4.88;4.35;;;8.80;64.70;;;;;;5045849;29;20656;-67
2021/05/05 09:47:56;;;;;;;5.00;4.35;;;8.80;61.50;;;;;;5042007;29;20654;-66
2021/05/05 09:50:45;;;;;;;4.78;4.28;;;8.70;63.50;;;;;;5046004;29;20056;-66
2021/05/05 09:53:23;;;;;;;5.10;4.47;;;8.90;63.70;;;;;;5019732;29;20185;-68
2021/05/05 09:55:58;;;;;;;4.55;4.15;;;8.60;64.40;;;;;;5048832;29;20060;-66
2021/05/05 09:58:44;;;;;;;5.00;4.50;;;8.60;67.00;;;;;;5030548;29;20052;-65
2021/05/05 10:01:22;;;;;;;5.00;4.50;;;8.50;66.20;;;;;;5036095;29;20409;-68
2021/05/05 10:03:55;;;;;;;4.90;4.40;;;8.80;69.00;;;;;;5048721;29;20044;-68
2021/05/05 10:06:31;;;;;;;6.07;3.50;;;8.90;67.50;;;;;;5043003;29;20056;-69
2021/05/05 10:09:11;;;;;;;5.05;3.50;;;9.10;64.50;;;;;;5033502;29;20055;-67
2021/05/05 10:11:45;;;;;;;4.07;3.35;;;9.00;66.20;;;;;;5045723;29;20396;-67
2021/05/05 10:14:19;;;;;;;5.20;3.83;;;9.10;64.50;;;;;;5038043;29;20045;-67
2021/05/05 10:16:52;;;;;;;4.50;3.40;;;9.10;67.50;;;;;;5048859;29;20068;-69
2021/05/05 10:19:26;;;;;;;5.00;3.28;;;9.30;68.30;;;;;;5048059;29;20120;-65
2021/05/05 10:22:06;;;;;;;4.50;2.95;;;9.30;65.50;;;;;;5047572;29;20852;-66
2021/05/05 10:24:44;;;;;;;5.35;3.20;;;9.20;67.10;;;;;;5050052;29;20136;-67
2021/05/05 10:27:17;;;;;;;5.90;3.10;;;9.20;67.50;;;;;;5045982;29;20140;-67
2021/05/05 10:29:50;;;;;;;4.78;3.03;;;9.20;66.20;;;;;;5045821;29;20666;-66
2021/05/05 10:32:23;;;;;;;2.95;2.58;;;9.10;68.00;;;;;;5030139;29;20044;-67
2021/05/05 10:34:55;;;;;;;3.40;2.70;;;9.10;68.00;;;;;;5047541;29;20037;-66
2021/05/05 10:37:44;;;;;;;3.63;2.70;;;9.10;69.40;;;;;;5045938;29;20557;-66
2021/05/05 10:40:20;;;;;;;4.05;2.97;;;9.10;66.70;;;;;;5047278;29;20136;-68
2021/05/05 10:42:57;;;;;;;7.45;3.20;;;9.10;68.10;;;;;;5046144;29;20135;-66
2021/05/05 10:45:44;;;;;;;4.03;2.90;;;9.10;68.70;;;;;;5047815;29;20472;-66
2021/05/05 10:48:18;;;;;;;3.20;2.90;;;9.10;69.10;;;;;;5031947;29;20158;-69
2021/05/05 10:50:53;;;;;;;3.42;2.92;;;9.00;66.80;;;;;;5050289;29;20060;-68
2021/05/05 10:53:36;;;;;;;3.45;2.90;;;8.70;64.90;;;;;;5050583;29;20056;-66
2021/05/05 10:56:41;;;;;;;2.85;2.55;;;8.70;67.40;;;;;;5050757;29;20061;-65
2021/05/05 10:59:12;;;;;;;2.85;2.55;;;8.50;67.50;;;;;;5020660;29;20053;-66
2021/05/05 11:01:46;;;;;;;2.90;2.55;;;8.10;64.90;;;;;;5051112;29;20132;-68
2021/05/05 11:04:18;;;;;;;2.65;2.15;;;7.90;67.30;;;;;;5051666;29;20126;-65
2021/05/05 11:06:51;;;;;;;2.83;2.58;;;7.60;69.10;;;;;;5050057;29;20052;-65
2021/05/05 11:09:23;;;;;;;2.60;2.30;;;7.50;67.90;;;;;;5051419;29;20048;-65
2021/05/05 11:11:54;;;;;;;3.38;2.70;;;7.40;69.50;;;;;;5053507;29;20060;-65
2021/05/05 11:14:30;;;;;;;2.42;2.10;;;7.50;69.50;;;;;;5052942;29;20048;-64
2021/05/05 11:17:05;;;;;;;2.80;2.50;;;7.40;69.00;;;;;;5052141;29;20092;-66
2021/05/05 11:19:37;;;;;;;2.60;2.40;;;7.40;68.30;;;;;;5049066;29;20054;-65
2021/05/05 11:22:34;;;;;;;2.45;2.25;;;7.20;70.20;;;;;;5049141;29;20071;-64
2021/05/05 11:25:24;;;;;;;3.38;2.50;;;7.20;68.90;;;;;;5044141;29;20731;-65
2021/05/05 11:27:58;;;;;;;2.50;2.20;;;7.20;70.50;;;;;;5051388;29;20052;-65
2021/05/05 11:30:42;;;;;;;2.35;2.15;;;7.40;71.40;;;;;;5049819;29;20056;-65
2021/05/05 11:33:13;;;;;;;2.60;2.38;;;7.50;69.30;;;;;;5051086;29;20136;-65
2021/05/05 11:35:46;;;;;;;2.42;2.22;;;7.60;71.10;;;;;;5050753;29;20065;-66
2021/05/05 11:38:20;;;;;;;3.15;2.50;;;7.60;71.70;;;;;;5049653;29;20052;-67
2021/05/05 11:40:58;;;;;;;3.08;2.78;;;7.40;71.80;;;;;;5050901;29;20041;-68
2021/05/05 11:43:31;;;;;;;3.10;2.80;;;7.50;72.30;;;;;;5051009;29;20057;-68
2021/05/05 11:46:04;;;;;;;3.10;2.80;;;7.60;71.40;;;;;;5049589;29;20055;-67
2021/05/05 11:48:39;;;;;;;2.85;2.55;;;7.70;72.30;;;;;;5045493;29;20171;-66
2021/05/05 11:51:23;;;;;;;2.50;2.30;;;7.50;69.40;;;;;;5047921;29;20563;-65
2021/05/05 11:53:54;;;;;;;3.45;2.80;;;7.30;67.10;;;;;;5050475;29;20045;-67
2021/05/05 11:56:27;;;;;;;2.92;2.58;;;7.20;69.90;;;;;;5050214;29;20116;-66
2021/05/05 11:59:00;;;;;;;2.65;2.42;;;7.20;69.70;;;;;;5047008;29;20045;-67
2021/05/05 12:01:38;;;;;;;4.03;3.13;;;7.40;71.20;;;;;;5046048;29;20518;-65
2021/05/05 12:04:17;;;;;;;11.27;6.55;;;7.70;72.20;;;;;;5037599;29;20196;-66
2021/05/05 12:06:57;;;;;;;5.70;3.67;;;8.20;70.90;;;;;;5047781;29;20470;-66
2021/05/05 12:09:34;;;;;;;5.25;3.40;;;8.50;70.80;;;;;;5045871;29;20040;-66
2021/05/05 12:12:28;;;;;;;4.05;3.00;;;8.70;69.60;;;;;;5050741;29;20045;-67
2021/05/05 12:15:04;;;;;;;3.50;2.88;;;8.80;65.60;;;;;;5045878;29;20388;-66
2021/05/05 12:17:41;;;;;;;4.63;3.60;;;9.00;69.10;;;;;;5046510;29;20060;-65
2021/05/05 12:20:18;;;;;;;3.53;2.67;;;9.10;69.50;;;;;;5052123;29;20100;-65
2021/05/05 12:22:55;;;;;;;6.15;4.30;;;9.10;66.90;;;;;;5051534;29;20045;-65
2021/05/05 12:25:28;;;;;;;3.78;3.42;;;9.00;67.20;;;;;;5048356;29;20137;-67
2021/05/05 12:28:13;;;;;;;4.07;3.28;;;8.90;69.10;;;;;;5051651;29;20538;-67
2021/05/05 12:30:55;;;;;;;4.15;3.28;;;8.90;67.40;;;;;;5051281;29;20052;-66
2021/05/05 12:33:29;;;;;;;7.15;3.97;;;8.70;66.60;;;;;;5042794;29;20071;-66
2021/05/05 12:36:04;;;;;;;39.33;7.60;;;8.50;69.20;;;;;;5050477;29;20412;-67
2021/05/05 12:38:38;;;;;;;7.00;3.90;;;8.60;69.50;;;;;;5050140;29;20044;-64
2021/05/05 12:41:17;;;;;;;5.85;3.58;;;8.70;68.60;;;;;;5050269;29;20052;-67
2021/05/05 12:43:53;;;;;;;6.93;4.00;;;8.70;69.50;;;;;;5039658;29;20049;-65
2021/05/05 12:46:27;;;;;;;11.32;4.35;;;8.60;70.20;;;;;;5049633;29;20048;-65
2021/05/05 12:49:02;;;;;;;28.70;6.05;;;8.70;69.10;;;;;;5045476;29;20570;-66
2021/05/05 12:51:38;;;;;;;5.35;3.60;;;8.70;70.50;;;;;;5038632;29;20053;-66
2021/05/05 12:54:20;;;;;;;13.43;5.18;;;8.70;70.40;;;;;;5048624;29;20044;-66
2021/05/05 12:56:53;;;;;;;22.58;6.32;;;8.80;67.30;;;;;;5047865;29;20049;-65
2021/05/05 12:59:32;;;;;;;5.40;3.60;;;8.90;69.70;;;;;;5037774;29;20190;-66
2021/05/05 13:02:05;;;;;;;6.83;3.83;;;9.30;68.20;;;;;;5043317;29;20097;-65
2021/05/05 13:04:42;;;;;;;9.55;4.90;;;9.60;68.10;;;;;;5045554;29;20688;-65
2021/05/05 13:07:26;;;;;;;8.45;4.18;;;9.90;69.80;;;;;;5047588;29;20060;-67
2021/05/05 13:10:07;;;;;;;4.65;3.53;;;10.10;70.10;;;;;;5048772;29;20617;-65
2021/05/05 13:12:43;;;;;;;6.55;4.15;;;10.10;66.10;;;;;;5049151;29;20056;-66
2021/05/05 13:15:38;;;;;;;5.30;3.78;;;10.30;66.90;;;;;;5047943;29;20099;-66
2021/05/05 13:33:02;;;;;;;4.82;4.18;;;10.70;68.80;;;;;;5048160;29;20052;-66
2021/05/05 13:35:57;;;;;;;4.25;3.85;;;11.20;66.50;;;;;;5050927;29;20049;-65
2021/05/05 13:38:35;;;;;;;4.40;3.85;;;11.10;64.80;;;;;;5049258;29;20048;-66
2021/05/05 13:41:23;;;;;;;4.30;3.85;;;10.90;62.40;;;;;;5048984;29;20053;-66
2021/05/05 13:44:00;;;;;;;6.65;4.22;;;10.30;59.00;;;;;;5044988;29;20404;-66
2021/05/05 13:46:55;;;;;;;4.78;3.88;;;10.00;64.70;;;;;;5047782;29;20175;-66
2021/05/05 13:52:06;;;;;;;6.55;4.60;;;9.20;60.60;;;;;;5048348;29;20072;-66
2021/05/05 13:54:38;;;;;;;5.00;4.00;;;8.80;63.70;;;;;;5050223;29;20411;-66
2021/05/05 13:57:09;;;;;;;6.35;4.00;;;8.40;64.50;;;;;;5045243;29;20040;-66
2021/05/05 13:59:42;;;;;;;5.72;4.03;;;8.10;67.20;;;;;;5046971;29;20708;-66